Terminal Aerodrome Forecast
Issued by NWS Charleston, WV

Current Version | Previous Version | Text Only | Print | Product List | Glossary Off
Versions: 1 2 3 4 5 6 7 8 9 10 11 12 13 14 15 16 17 18 19 20 21 22 23

000
FTUS41 KRLX 202343 RRA
TAFBKW
TAF
KBKW 202343Z 2100/2118 27007KT P6SM SCT250
     FM210400 21003KT P6SM SCT250
     FM211400 26008KT P6SM SCT150=

USA.gov is the U.S. government's official web portal to all federal, state and local government web resources and services.